Swedeborg, Missouri
Current Conditions -  °F | °C
As of 1:58 AM on Monday 22 Dec 2014 (Local Time) from KTBN Reporting Station
Overcast Overcast  
Wind Chill: 34°   Ceiling: 4800
Heat Index: 41°   Visibility: 10mi
Dew Point: 36°   Wind: 12mph
Humidity: 82%   Direction: 130°SE
Pressure: 29.77"   Gusts: NA
Location:  37.91°N, 92.33°W
Report Text: KTBN 220758Z AUTO 13010KT 10SM FEW031 OVC048 05/02 A2977 RMK AO2 SLP089 T00490021 $
Loading
Personal Weather Stations






























Interactive Weather Map New forecast layout! Learn more

10-Day Weather Forecast

Advertisements
Track Severe Weather on mobile